KWRI/WRI METAR and TAF weather

Enter ICAO airport designator
Station Type Date Time Source
KWRI METAR 2020/04/03 23:02 UTC NOAA

KWRI 032302Z AUTO 34011KT 10SM -RA OVC036 12/05 A2978 RMK AO2 RAB02 SLP084 $


Station Type Date Time Source
KWRI Decoded METAR 2020/04/03 23:02 UTC NOAA

Mcguire Air Force Base, NJ, United States (KWRI) 40-01N 074-36W
Apr 03, 2020 - 07:02 PM EDT / 2020.04.03 2302 UTC
Wind: from the NNW (340 degrees) at 13 MPH (11 KT):0
Visibility: 10 mile(s):0
Sky conditions: overcast
Weather: light rain
Temperature: 53 F (12 C)
Dew Point: 41 F (5 C)
Relative Humidity: 62%
Pressure (altimeter): 29.78 in. Hg (1008 hPa)
ob: KWRI 032302Z AUTO 34011KT 10SM -RA OVC036 12/05 A2978 RMK AO2 RAB02 SLP084
cycle: 23

Station Type Date Time Source
KWRI TAF 2020/04/03 18:12 UTC NOAA

TAF TAF KWRI 031800Z 0318/0424 34015G25KT 8000 -SHRA OVC030 QNH2968INS
BECMG 0400/0401 35010G15KT 9999 NSW OVC020 QNH2980INS
BECMG 0406/0407 01008KT 9999 OVC025 QNH2986INS
BECMG 0412/0413 03010G18KT 9999 OVC030 QNH2990INS
BECMG 0420/0421 09008KT 9999 OVC030 QNH2998INS TX12/0321Z TN06/0410Z

Example: see airport list